Terminal Aerodrome Forecast
Issued by NWS Cleveland, OH

Home | Current Version | Previous Version | Graphics & Text | Print | Product List | Glossary On
Versions: 1 2 3 4 5 6 7 8 9 10 11 12 13 14 15 16 17 18 19 20 21 22 23 24 25
000
FTUS41 KCLE 021100
TAFYNG
TAF
KYNG 021130Z 0212/0312 28011KT 5SM -SN BR SCT015 OVC030
      TEMPO 0212/0216 2SM -SN BR BKN012 OVC025
     FM021600 29011KT P6SM BKN030
     FM022000 28007KT P6SM SCT035 BKN250
     FM030000 VRB03KT P6SM BKN200=

USA.gov is the U.S. government's official web portal to all federal, state and local government web resources and services.